sensor_id;sensor_type;location;lat;lon;timestamp;P1;durP1;ratioP1;P2;durP2;ratioP2
17482;SDS011;8858;52.308;20.994;2023-04-15T00:01:43;7.60;;;6.90;;
17482;SDS011;8858;52.308;20.994;2023-04-15T00:04:11;8.00;;;7.20;;
17482;SDS011;8858;52.308;20.994;2023-04-15T00:06:39;7.57;;;6.87;;
17482;SDS011;8858;52.308;20.994;2023-04-15T00:09:08;7.90;;;7.03;;
17482;SDS011;8858;52.308;20.994;2023-04-15T00:11:38;7.40;;;6.77;;
17482;SDS011;8858;52.308;20.994;2023-04-15T00:14:06;7.60;;;6.83;;
17482;SDS011;8858;52.308;20.994;2023-04-15T00:16:36;7.57;;;6.77;;
17482;SDS011;8858;52.308;20.994;2023-04-15T00:19:05;8.47;;;6.80;;
17482;SDS011;8858;52.308;20.994;2023-04-15T00:21:33;7.30;;;6.60;;
17482;SDS011;8858;52.308;20.994;2023-04-15T00:24:03;8.20;;;7.07;;
17482;SDS011;8858;52.308;20.994;2023-04-15T00:26:31;7.73;;;6.70;;
17482;SDS011;8858;52.308;20.994;2023-04-15T00:29:01;7.73;;;7.03;;
17482;SDS011;8858;52.308;20.994;2023-04-15T00:31:30;7.77;;;7.00;;
17482;SDS011;8858;52.308;20.994;2023-04-15T00:34:01;7.97;;;7.17;;
17482;SDS011;8858;52.308;20.994;2023-04-15T00:36:30;8.67;;;7.77;;
17482;SDS011;8858;52.308;20.994;2023-04-15T00:39:00;7.80;;;7.00;;
17482;SDS011;8858;52.308;20.994;2023-04-15T00:41:29;8.03;;;7.30;;
17482;SDS011;8858;52.308;20.994;2023-04-15T00:43:58;7.90;;;7.10;;
17482;SDS011;8858;52.308;20.994;2023-04-15T00:46:27;7.67;;;6.93;;
17482;SDS011;8858;52.308;20.994;2023-04-15T00:48:58;7.80;;;7.10;;
17482;SDS011;8858;52.308;20.994;2023-04-15T00:51:33;7.93;;;7.13;;
17482;SDS011;8858;52.308;20.994;2023-04-15T00:54:03;8.07;;;7.27;;
17482;SDS011;8858;52.308;20.994;2023-04-15T00:56:33;7.57;;;6.87;;
17482;SDS011;8858;52.308;20.994;2023-04-15T00:59:04;8.50;;;7.50;;
17482;SDS011;8858;52.308;20.994;2023-04-15T01:01:33;8.23;;;7.43;;
17482;SDS011;8858;52.308;20.994;2023-04-15T01:04:04;8.03;;;7.33;;
17482;SDS011;8858;52.308;20.994;2023-04-15T01:06:36;8.73;;;7.93;;
17482;SDS011;8858;52.308;20.994;2023-04-15T01:09:04;8.00;;;7.20;;
17482;SDS011;8858;52.308;20.994;2023-04-15T01:11:33;8.00;;;7.30;;
17482;SDS011;8858;52.308;20.994;2023-04-15T01:14:02;8.87;;;7.97;;
17482;SDS011;8858;52.308;20.994;2023-04-15T01:16:31;8.70;;;7.90;;
17482;SDS011;8858;52.308;20.994;2023-04-15T01:19:00;8.20;;;7.40;;
17482;SDS011;8858;52.308;20.994;2023-04-15T01:21:32;7.67;;;6.97;;
17482;SDS011;8858;52.308;20.994;2023-04-15T01:24:03;7.90;;;7.10;;
17482;SDS011;8858;52.308;20.994;2023-04-15T01:26:40;8.37;;;7.60;;
17482;SDS011;8858;52.308;20.994;2023-04-15T01:29:11;9.00;;;8.10;;
17482;SDS011;8858;52.308;20.994;2023-04-15T01:31:39;8.57;;;7.83;;
17482;SDS011;8858;52.308;20.994;2023-04-15T01:34:07;9.10;;;8.20;;
17482;SDS011;8858;52.308;20.994;2023-04-15T01:36:36;8.37;;;7.57;;
17482;SDS011;8858;52.308;20.994;2023-04-15T01:39:06;8.60;;;7.80;;
17482;SDS011;8858;52.308;20.994;2023-04-15T01:41:35;10.30;;;8.63;;
17482;SDS011;8858;52.308;20.994;2023-04-15T01:44:04;9.70;;;8.20;;
17482;SDS011;8858;52.308;20.994;2023-04-15T01:46:34;10.57;;;8.97;;
17482;SDS011;8858;52.308;20.994;2023-04-15T01:49:02;10.17;;;8.63;;
17482;SDS011;8858;52.308;20.994;2023-04-15T01:51:34;9.60;;;8.57;;
17482;SDS011;8858;52.308;20.994;2023-04-15T01:54:04;9.60;;;8.70;;
17482;SDS011;8858;52.308;20.994;2023-04-15T01:56:33;9.80;;;8.90;;
17482;SDS011;8858;52.308;20.994;2023-04-15T01:59:02;10.50;;;9.07;;
17482;SDS011;8858;52.308;20.994;2023-04-15T02:01:32;10.13;;;9.13;;
17482;SDS011;8858;52.308;20.994;2023-04-15T02:04:02;10.90;;;9.87;;
17482;SDS011;8858;52.308;20.994;2023-04-15T02:06:31;10.73;;;9.63;;
17482;SDS011;8858;52.308;20.994;2023-04-15T02:09:00;10.70;;;9.67;;
17482;SDS011;8858;52.308;20.994;2023-04-15T02:11:30;10.77;;;9.77;;
17482;SDS011;8858;52.308;20.994;2023-04-15T02:13:58;10.43;;;9.23;;
17482;SDS011;8858;52.308;20.994;2023-04-15T02:16:29;10.50;;;9.37;;
17482;SDS011;8858;52.308;20.994;2023-04-15T02:18:59;10.93;;;9.93;;
17482;SDS011;8858;52.308;20.994;2023-04-15T02:21:32;11.37;;;10.23;;
17482;SDS011;8858;52.308;20.994;2023-04-15T02:24:01;10.77;;;9.77;;
17482;SDS011;8858;52.308;20.994;2023-04-15T02:26:29;11.37;;;10.27;;
17482;SDS011;8858;52.308;20.994;2023-04-15T02:28:59;11.10;;;9.90;;
17482;SDS011;8858;52.308;20.994;2023-04-15T02:31:28;11.80;;;10.70;;
17482;SDS011;8858;52.308;20.994;2023-04-15T02:34:00;10.87;;;9.87;;
17482;SDS011;8858;52.308;20.994;2023-04-15T02:36:30;12.20;;;10.93;;
17482;SDS011;8858;52.308;20.994;2023-04-15T02:39:00;10.77;;;9.70;;
17482;SDS011;8858;52.308;20.994;2023-04-15T02:41:29;11.17;;;10.00;;
17482;SDS011;8858;52.308;20.994;2023-04-15T02:43:58;11.20;;;10.20;;
17482;SDS011;8858;52.308;20.994;2023-04-15T02:46:28;11.43;;;10.33;;
17482;SDS011;8858;52.308;20.994;2023-04-15T02:48:57;11.40;;;10.10;;
17482;SDS011;8858;52.308;20.994;2023-04-15T02:51:28;10.13;;;9.23;;
17482;SDS011;8858;52.308;20.994;2023-04-15T02:53:57;10.87;;;9.87;;
17482;SDS011;8858;52.308;20.994;2023-04-15T02:56:26;11.73;;;9.97;;
17482;SDS011;8858;52.308;20.994;2023-04-15T02:58:55;10.47;;;9.47;;
17482;SDS011;8858;52.308;20.994;2023-04-15T03:05:10;10.30;;;9.30;;
17482;SDS011;8858;52.308;20.994;2023-04-15T03:07:47;10.37;;;9.37;;
17482;SDS011;8858;52.308;20.994;2023-04-15T03:10:17;10.47;;;9.47;;
17482;SDS011;8858;52.308;20.994;2023-04-15T03:12:47;10.93;;;9.93;;
17482;SDS011;8858;52.308;20.994;2023-04-15T03:15:21;10.80;;;9.57;;
17482;SDS011;8858;52.308;20.994;2023-04-15T03:17:51;10.97;;;10.07;;
17482;SDS011;8858;52.308;20.994;2023-04-15T03:20:20;10.97;;;9.53;;
17482;SDS011;8858;52.308;20.994;2023-04-15T03:22:51;10.27;;;9.37;;
17482;SDS011;8858;52.308;20.994;2023-04-15T03:25:21;10.67;;;9.67;;
17482;SDS011;8858;52.308;20.994;2023-04-15T03:27:50;11.00;;;9.93;;
17482;SDS011;8858;52.308;20.994;2023-04-15T03:30:20;10.37;;;9.47;;
17482;SDS011;8858;52.308;20.994;2023-04-15T03:32:49;10.73;;;9.63;;
17482;SDS011;8858;52.308;20.994;2023-04-15T03:35:18;10.70;;;9.70;;
17482;SDS011;8858;52.308;20.994;2023-04-15T03:37:47;11.20;;;10.20;;
17482;SDS011;8858;52.308;20.994;2023-04-15T03:40:17;10.43;;;9.43;;
17482;SDS011;8858;52.308;20.994;2023-04-15T03:42:48;10.40;;;9.37;;
17482;SDS011;8858;52.308;20.994;2023-04-15T03:45:16;10.70;;;9.70;;
17482;SDS011;8858;52.308;20.994;2023-04-15T03:47:45;10.27;;;9.30;;
17482;SDS011;8858;52.308;20.994;2023-04-15T03:50:14;10.43;;;9.33;;
17482;SDS011;8858;52.308;20.994;2023-04-15T03:52:42;10.93;;;9.97;;
17482;SDS011;8858;52.308;20.994;2023-04-15T03:55:11;11.30;;;10.20;;
17482;SDS011;8858;52.308;20.994;2023-04-15T03:57:42;10.20;;;9.30;;
17482;SDS011;8858;52.308;20.994;2023-04-15T04:00:11;13.53;;;9.97;;
17482;SDS011;8858;52.308;20.994;2023-04-15T04:02:39;10.27;;;9.37;;
17482;SDS011;8858;52.308;20.994;2023-04-15T04:05:09;10.50;;;9.53;;
17482;SDS011;8858;52.308;20.994;2023-04-15T04:07:38;10.70;;;9.70;;
17482;SDS011;8858;52.308;20.994;2023-04-15T04:10:09;11.00;;;9.90;;
17482;SDS011;8858;52.308;20.994;2023-04-15T04:12:38;12.10;;;9.70;;
17482;SDS011;8858;52.308;20.994;2023-04-15T04:15:10;9.97;;;9.17;;
17482;SDS011;8858;52.308;20.994;2023-04-15T04:17:38;10.23;;;9.33;;
17482;SDS011;8858;52.308;20.994;2023-04-15T04:20:07;10.03;;;9.00;;
17482;SDS011;8858;52.308;20.994;2023-04-15T04:22:39;10.97;;;9.87;;
17482;SDS011;8858;52.308;20.994;2023-04-15T04:25:08;10.10;;;9.00;;
17482;SDS011;8858;52.308;20.994;2023-04-15T04:27:36;10.47;;;9.47;;
17482;SDS011;8858;52.308;20.994;2023-04-15T04:30:07;10.20;;;9.17;;
17482;SDS011;8858;52.308;20.994;2023-04-15T04:32:37;9.60;;;8.60;;
17482;SDS011;8858;52.308;20.994;2023-04-15T04:35:05;10.63;;;9.63;;
17482;SDS011;8858;52.308;20.994;2023-04-15T04:37:34;11.17;;;10.00;;
17482;SDS011;8858;52.308;20.994;2023-04-15T04:40:04;9.60;;;8.80;;
17482;SDS011;8858;52.308;20.994;2023-04-15T04:42:33;9.93;;;9.03;;
17482;SDS011;8858;52.308;20.994;2023-04-15T04:45:05;10.50;;;9.50;;
17482;SDS011;8858;52.308;20.994;2023-04-15T04:47:34;11.93;;;9.80;;
17482;SDS011;8858;52.308;20.994;2023-04-15T04:50:05;10.33;;;9.33;;
17482;SDS011;8858;52.308;20.994;2023-04-15T04:52:34;10.10;;;9.10;;
17482;SDS011;8858;52.308;20.994;2023-04-15T04:55:03;11.87;;;9.57;;
17482;SDS011;8858;52.308;20.994;2023-04-15T04:57:34;10.37;;;9.30;;
17482;SDS011;8858;52.308;20.994;2023-04-15T05:00:04;10.23;;;9.07;;
17482;SDS011;8858;52.308;20.994;2023-04-15T05:02:34;10.73;;;9.77;;
17482;SDS011;8858;52.308;20.994;2023-04-15T05:05:03;13.00;;;10.17;;
17482;SDS011;8858;52.308;20.994;2023-04-15T05:07:34;10.73;;;9.57;;
17482;SDS011;8858;52.308;20.994;2023-04-15T05:10:03;10.23;;;9.27;;
17482;SDS011;8858;52.308;20.994;2023-04-15T05:12:32;10.53;;;9.57;;
17482;SDS011;8858;52.308;20.994;2023-04-15T05:15:04;9.50;;;8.67;;
17482;SDS011;8858;52.308;20.994;2023-04-15T05:17:32;10.20;;;9.10;;
17482;SDS011;8858;52.308;20.994;2023-04-15T05:20:01;10.97;;;9.87;;
17482;SDS011;8858;52.308;20.994;2023-04-15T05:22:31;9.57;;;8.43;;
17482;SDS011;8858;52.308;20.994;2023-04-15T05:25:00;10.93;;;9.93;;
17482;SDS011;8858;52.308;20.994;2023-04-15T05:27:29;11.03;;;9.97;;
17482;SDS011;8858;52.308;20.994;2023-04-15T05:29:57;10.97;;;9.97;;
17482;SDS011;8858;52.308;20.994;2023-04-15T05:32:26;11.83;;;10.47;;
17482;SDS011;8858;52.308;20.994;2023-04-15T05:34:54;10.13;;;9.03;;
17482;SDS011;8858;52.308;20.994;2023-04-15T05:37:27;10.77;;;8.97;;
17482;SDS011;8858;52.308;20.994;2023-04-15T05:39:56;10.07;;;9.07;;
17482;SDS011;8858;52.308;20.994;2023-04-15T05:42:24;10.37;;;9.20;;
17482;SDS011;8858;52.308;20.994;2023-04-15T05:44:53;10.10;;;9.10;;
17482;SDS011;8858;52.308;20.994;2023-04-15T05:47:22;10.57;;;9.47;;
17482;SDS011;8858;52.308;20.994;2023-04-15T05:49:53;10.80;;;9.50;;
17482;SDS011;8858;52.308;20.994;2023-04-15T05:52:23;10.87;;;9.80;;
17482;SDS011;8858;52.308;20.994;2023-04-15T05:54:51;10.37;;;9.10;;
17482;SDS011;8858;52.308;20.994;2023-04-15T05:57:22;10.57;;;9.23;;
17482;SDS011;8858;52.308;20.994;2023-04-15T05:59:51;11.80;;;9.77;;
17482;SDS011;8858;52.308;20.994;2023-04-15T06:02:22;10.27;;;9.20;;
17482;SDS011;8858;52.308;20.994;2023-04-15T06:04:51;10.07;;;9.07;;
17482;SDS011;8858;52.308;20.994;2023-04-15T06:07:19;9.87;;;8.87;;
17482;SDS011;8858;52.308;20.994;2023-04-15T06:09:50;9.83;;;8.83;;
17482;SDS011;8858;52.308;20.994;2023-04-15T06:12:19;9.83;;;8.83;;
17482;SDS011;8858;52.308;20.994;2023-04-15T06:14:51;9.80;;;8.80;;
17482;SDS011;8858;52.308;20.994;2023-04-15T06:17:19;10.03;;;8.03;;
17482;SDS011;8858;52.308;20.994;2023-04-15T06:19:47;9.10;;;8.30;;
17482;SDS011;8858;52.308;20.994;2023-04-15T06:22:20;9.37;;;8.47;;
17482;SDS011;8858;52.308;20.994;2023-04-15T06:24:49;8.67;;;7.73;;
17482;SDS011;8858;52.308;20.994;2023-04-15T06:27:18;9.73;;;8.73;;
17482;SDS011;8858;52.308;20.994;2023-04-15T06:29:46;9.20;;;8.20;;
17482;SDS011;8858;52.308;20.994;2023-04-15T06:32:16;9.40;;;8.40;;
17482;SDS011;8858;52.308;20.994;2023-04-15T06:34:46;8.73;;;7.83;;
17482;SDS011;8858;52.308;20.994;2023-04-15T06:37:15;8.67;;;7.97;;
17482;SDS011;8858;52.308;20.994;2023-04-15T06:39:47;8.83;;;7.93;;
17482;SDS011;8858;52.308;20.994;2023-04-15T06:42:15;10.93;;;8.30;;
17482;SDS011;8858;52.308;20.994;2023-04-15T06:44:43;9.20;;;8.30;;
17482;SDS011;8858;52.308;20.994;2023-04-15T06:47:16;9.30;;;8.17;;
17482;SDS011;8858;52.308;20.994;2023-04-15T06:49:45;9.07;;;8.17;;
17482;SDS011;8858;52.308;20.994;2023-04-15T06:52:14;9.40;;;8.50;;
17482;SDS011;8858;52.308;20.994;2023-04-15T06:54:42;9.47;;;8.40;;
17482;SDS011;8858;52.308;20.994;2023-04-15T06:57:10;9.07;;;8.27;;
17482;SDS011;8858;52.308;20.994;2023-04-15T06:59:41;8.77;;;7.87;;
17482;SDS011;8858;52.308;20.994;2023-04-15T07:02:10;9.30;;;8.13;;
17482;SDS011;8858;52.308;20.994;2023-04-15T07:04:44;8.10;;;7.40;;
17482;SDS011;8858;52.308;20.994;2023-04-15T07:07:12;8.70;;;7.33;;
17482;SDS011;8858;52.308;20.994;2023-04-15T07:09:40;9.20;;;8.40;;
17482;SDS011;8858;52.308;20.994;2023-04-15T07:12:10;8.97;;;7.70;;
17482;SDS011;8858;52.308;20.994;2023-04-15T07:14:38;8.70;;;8.00;;
17482;SDS011;8858;52.308;20.994;2023-04-15T07:17:07;8.60;;;7.80;;
17482;SDS011;8858;52.308;20.994;2023-04-15T07:19:36;8.73;;;7.90;;
17482;SDS011;8858;52.308;20.994;2023-04-15T07:22:05;9.33;;;7.77;;
17482;SDS011;8858;52.308;20.994;2023-04-15T07:24:33;8.10;;;7.40;;
17482;SDS011;8858;52.308;20.994;2023-04-15T07:27:01;8.10;;;7.40;;
17482;SDS011;8858;52.308;20.994;2023-04-15T07:29:30;7.50;;;6.80;;
17482;SDS011;8858;52.308;20.994;2023-04-15T07:31:58;8.30;;;7.37;;
17482;SDS011;8858;52.308;20.994;2023-04-15T07:34:27;8.43;;;7.43;;
17482;SDS011;8858;52.308;20.994;2023-04-15T07:36:57;7.80;;;7.10;;
17482;SDS011;8858;52.308;20.994;2023-04-15T07:39:27;8.70;;;6.90;;
17482;SDS011;8858;52.308;20.994;2023-04-15T07:42:00;9.23;;;7.40;;
17482;SDS011;8858;52.308;20.994;2023-04-15T07:44:29;8.27;;;7.47;;
17482;SDS011;8858;52.308;20.994;2023-04-15T07:46:58;7.00;;;6.40;;
17482;SDS011;8858;52.308;20.994;2023-04-15T07:49:26;7.43;;;6.80;;
17482;SDS011;8858;52.308;20.994;2023-04-15T07:51:54;6.83;;;5.80;;
17482;SDS011;8858;52.308;20.994;2023-04-15T07:54:25;9.00;;;8.10;;
17482;SDS011;8858;52.308;20.994;2023-04-15T07:56:57;8.90;;;7.80;;
17482;SDS011;8858;52.308;20.994;2023-04-15T07:59:27;6.17;;;5.53;;
17482;SDS011;8858;52.308;20.994;2023-04-15T08:01:55;6.37;;;5.67;;
17482;SDS011;8858;52.308;20.994;2023-04-15T08:04:24;10.83;;;9.73;;
17482;SDS011;8858;52.308;20.994;2023-04-15T08:06:53;5.90;;;5.40;;
17482;SDS011;8858;52.308;20.994;2023-04-15T08:09:22;6.80;;;6.20;;
17482;SDS011;8858;52.308;20.994;2023-04-15T08:11:52;14.70;;;12.43;;
17482;SDS011;8858;52.308;20.994;2023-04-15T08:14:23;6.27;;;5.67;;
17482;SDS011;8858;52.308;20.994;2023-04-15T08:16:51;5.87;;;5.37;;
17482;SDS011;8858;52.308;20.994;2023-04-15T08:19:20;5.07;;;4.57;;
17482;SDS011;8858;52.308;20.994;2023-04-15T08:21:50;5.30;;;4.90;;
17482;SDS011;8858;52.308;20.994;2023-04-15T08:24:18;4.90;;;4.50;;
17482;SDS011;8858;52.308;20.994;2023-04-15T08:26:52;5.40;;;4.13;;
17482;SDS011;8858;52.308;20.994;2023-04-15T08:29:24;4.47;;;4.07;;
17482;SDS011;8858;52.308;20.994;2023-04-15T08:31:52;4.60;;;4.20;;
17482;SDS011;8858;52.308;20.994;2023-04-15T08:34:22;5.03;;;4.40;;
17482;SDS011;8858;52.308;20.994;2023-04-15T08:36:50;4.93;;;4.53;;
17482;SDS011;8858;52.308;20.994;2023-04-15T08:39:19;3.87;;;3.63;;
17482;SDS011;8858;52.308;20.994;2023-04-15T08:41:50;4.63;;;4.23;;
17482;SDS011;8858;52.308;20.994;2023-04-15T08:44:26;4.47;;;4.07;;
17482;SDS011;8858;52.308;20.994;2023-04-15T08:46:58;7.33;;;6.73;;
17482;SDS011;8858;52.308;20.994;2023-04-15T08:49:28;13.70;;;12.20;;
17482;SDS011;8858;52.308;20.994;2023-04-15T08:51:58;3.77;;;3.50;;
17482;SDS011;8858;52.308;20.994;2023-04-15T08:54:28;4.07;;;3.70;;
17482;SDS011;8858;52.308;20.994;2023-04-15T08:56:57;4.43;;;4.03;;
17482;SDS011;8858;52.308;20.994;2023-04-15T08:59:26;5.50;;;4.30;;
17482;SDS011;8858;52.308;20.994;2023-04-15T09:01:57;4.97;;;4.57;;
17482;SDS011;8858;52.308;20.994;2023-04-15T09:04:25;4.20;;;3.80;;
17482;SDS011;8858;52.308;20.994;2023-04-15T09:06:55;3.97;;;3.30;;
17482;SDS011;8858;52.308;20.994;2023-04-15T09:09:23;3.47;;;3.10;;
17482;SDS011;8858;52.308;20.994;2023-04-15T09:11:52;3.53;;;3.33;;
17482;SDS011;8858;52.308;20.994;2023-04-15T09:14:20;3.83;;;3.43;;
17482;SDS011;8858;52.308;20.994;2023-04-15T09:16:58;3.40;;;3.20;;
17482;SDS011;8858;52.308;20.994;2023-04-15T09:19:28;6.67;;;5.60;;
17482;SDS011;8858;52.308;20.994;2023-04-15T09:21:58;3.77;;;3.47;;
17482;SDS011;8858;52.308;20.994;2023-04-15T09:24:32;3.10;;;2.80;;
17482;SDS011;8858;52.308;20.994;2023-04-15T09:27:06;3.43;;;3.13;;
17482;SDS011;8858;52.308;20.994;2023-04-15T09:29:34;3.27;;;3.07;;
17482;SDS011;8858;52.308;20.994;2023-04-15T09:32:12;3.10;;;2.90;;
17482;SDS011;8858;52.308;20.994;2023-04-15T09:34:41;3.20;;;3.00;;
17482;SDS011;8858;52.308;20.994;2023-04-15T09:37:10;3.63;;;3.37;;
17482;SDS011;8858;52.308;20.994;2023-04-15T09:39:57;3.40;;;3.10;;
17482;SDS011;8858;52.308;20.994;2023-04-15T09:42:25;3.50;;;3.20;;
17482;SDS011;8858;52.308;20.994;2023-04-15T09:44:54;3.27;;;3.07;;
17482;SDS011;8858;52.308;20.994;2023-04-15T09:47:27;2.93;;;2.73;;
17482;SDS011;8858;52.308;20.994;2023-04-15T09:49:57;3.20;;;2.90;;
17482;SDS011;8858;52.308;20.994;2023-04-15T09:52:25;3.30;;;3.03;;
17482;SDS011;8858;52.308;20.994;2023-04-15T09:54:58;3.30;;;3.00;;
17482;SDS011;8858;52.308;20.994;2023-04-15T09:57:32;8.17;;;7.17;;
17482;SDS011;8858;52.308;20.994;2023-04-15T10:00:02;3.87;;;3.47;;
17482;SDS011;8858;52.308;20.994;2023-04-15T10:02:33;4.50;;;3.50;;
17482;SDS011;8858;52.308;20.994;2023-04-15T10:05:05;3.90;;;3.50;;
17482;SDS011;8858;52.308;20.994;2023-04-15T10:07:36;8.30;;;6.33;;
17482;SDS011;8858;52.308;20.994;2023-04-15T10:10:07;5.93;;;5.33;;
17482;SDS011;8858;52.308;20.994;2023-04-15T10:12:37;4.00;;;2.97;;
17482;SDS011;8858;52.308;20.994;2023-04-15T10:15:10;3.73;;;2.90;;
17482;SDS011;8858;52.308;20.994;2023-04-15T10:17:44;3.50;;;3.20;;
17482;SDS011;8858;52.308;20.994;2023-04-15T10:20:14;3.20;;;2.90;;
17482;SDS011;8858;52.308;20.994;2023-04-15T10:22:45;7.27;;;3.43;;
17482;SDS011;8858;52.308;20.994;2023-04-15T10:25:15;3.37;;;3.07;;
17482;SDS011;8858;52.308;20.994;2023-04-15T10:27:43;3.40;;;3.10;;
17482;SDS011;8858;52.308;20.994;2023-04-15T10:30:14;4.73;;;4.33;;
17482;SDS011;8858;52.308;20.994;2023-04-15T10:32:44;5.47;;;5.07;;
17482;SDS011;8858;52.308;20.994;2023-04-15T10:35:12;8.33;;;7.63;;
17482;SDS011;8858;52.308;20.994;2023-04-15T10:37:42;10.10;;;9.20;;
17482;SDS011;8858;52.308;20.994;2023-04-15T10:40:22;11.43;;;9.90;;
17482;SDS011;8858;52.308;20.994;2023-04-15T10:42:53;3.80;;;3.50;;
17482;SDS011;8858;52.308;20.994;2023-04-15T10:45:25;3.13;;;2.93;;
17482;SDS011;8858;52.308;20.994;2023-04-15T10:47:56;3.17;;;2.97;;
17482;SDS011;8858;52.308;20.994;2023-04-15T10:50:29;3.00;;;2.80;;
17482;SDS011;8858;52.308;20.994;2023-04-15T10:52:58;3.60;;;2.90;;
17482;SDS011;8858;52.308;20.994;2023-04-15T10:55:30;2.93;;;2.73;;
17482;SDS011;8858;52.308;20.994;2023-04-15T10:58:01;2.97;;;2.77;;
17482;SDS011;8858;52.308;20.994;2023-04-15T11:00:30;2.90;;;2.70;;
17482;SDS011;8858;52.308;20.994;2023-04-15T11:03:05;3.23;;;2.93;;
17482;SDS011;8858;52.308;20.994;2023-04-15T11:05:47;2.97;;;2.77;;
17482;SDS011;8858;52.308;20.994;2023-04-15T11:08:21;2.47;;;2.37;;
17482;SDS011;8858;52.308;20.994;2023-04-15T11:11:20;2.90;;;2.70;;
17482;SDS011;8858;52.308;20.994;2023-04-15T11:13:49;2.87;;;2.67;;
17482;SDS011;8858;52.308;20.994;2023-04-15T11:16:18;2.50;;;2.40;;
17482;SDS011;8858;52.308;20.994;2023-04-15T11:18:54;3.40;;;2.47;;
17482;SDS011;8858;52.308;20.994;2023-04-15T11:21:23;2.70;;;2.50;;
17482;SDS011;8858;52.308;20.994;2023-04-15T11:23:54;2.40;;;2.30;;
17482;SDS011;8858;52.308;20.994;2023-04-15T11:26:24;2.70;;;2.50;;
17482;SDS011;8858;52.308;20.994;2023-04-15T11:28:53;4.10;;;3.20;;
17482;SDS011;8858;52.308;20.994;2023-04-15T11:31:21;2.77;;;2.53;;
17482;SDS011;8858;52.308;20.994;2023-04-15T11:33:55;2.40;;;2.20;;
17482;SDS011;8858;52.308;20.994;2023-04-15T11:36:25;2.63;;;2.43;;
17482;SDS011;8858;52.308;20.994;2023-04-15T11:38:57;3.00;;;2.80;;
17482;SDS011;8858;52.308;20.994;2023-04-15T11:41:26;2.43;;;2.30;;
17482;SDS011;8858;52.308;20.994;2023-04-15T11:43:55;2.43;;;2.23;;
17482;SDS011;8858;52.308;20.994;2023-04-15T11:46:27;2.47;;;2.30;;
17482;SDS011;8858;52.308;20.994;2023-04-15T11:48:59;2.40;;;2.30;;
17482;SDS011;8858;52.308;20.994;2023-04-15T11:51:30;4.77;;;4.20;;
17482;SDS011;8858;52.308;20.994;2023-04-15T11:53:59;2.47;;;2.27;;
17482;SDS011;8858;52.308;20.994;2023-04-15T11:56:28;2.50;;;2.30;;
17482;SDS011;8858;52.308;20.994;2023-04-15T11:58:57;2.50;;;2.30;;
17482;SDS011;8858;52.308;20.994;2023-04-15T12:01:29;2.67;;;2.47;;
17482;SDS011;8858;52.308;20.994;2023-04-15T12:04:04;2.37;;;2.27;;
17482;SDS011;8858;52.308;20.994;2023-04-15T12:06:38;2.53;;;2.33;;
17482;SDS011;8858;52.308;20.994;2023-04-15T12:09:10;2.60;;;2.40;;
17482;SDS011;8858;52.308;20.994;2023-04-15T12:11:39;2.50;;;2.30;;
17482;SDS011;8858;52.308;20.994;2023-04-15T12:14:11;2.63;;;2.43;;
17482;SDS011;8858;52.308;20.994;2023-04-15T12:16:48;5.03;;;2.80;;
17482;SDS011;8858;52.308;20.994;2023-04-15T12:19:22;3.67;;;2.63;;
17482;SDS011;8858;52.308;20.994;2023-04-15T12:21:52;2.80;;;2.60;;
17482;SDS011;8858;52.308;20.994;2023-04-15T12:24:26;2.93;;;2.73;;
17482;SDS011;8858;52.308;20.994;2023-04-15T12:27:00;2.73;;;2.53;;
17482;SDS011;8858;52.308;20.994;2023-04-15T12:29:34;2.60;;;2.40;;
17482;SDS011;8858;52.308;20.994;2023-04-15T12:32:04;2.73;;;2.00;;
17482;SDS011;8858;52.308;20.994;2023-04-15T12:34:36;2.23;;;2.03;;
17482;SDS011;8858;52.308;20.994;2023-04-15T12:37:06;3.30;;;2.40;;
17482;SDS011;8858;52.308;20.994;2023-04-15T12:39:36;2.60;;;2.47;;
17482;SDS011;8858;52.308;20.994;2023-04-15T12:42:09;2.93;;;2.60;;
17482;SDS011;8858;52.308;20.994;2023-04-15T12:44:38;2.90;;;2.70;;
17482;SDS011;8858;52.308;20.994;2023-04-15T12:47:11;3.03;;;2.43;;
17482;SDS011;8858;52.308;20.994;2023-04-15T12:49:40;3.00;;;2.80;;
17482;SDS011;8858;52.308;20.994;2023-04-15T12:52:12;2.87;;;2.63;;
17482;SDS011;8858;52.308;20.994;2023-04-15T12:54:41;2.80;;;2.60;;
17482;SDS011;8858;52.308;20.994;2023-04-15T12:57:10;2.90;;;2.70;;
17482;SDS011;8858;52.308;20.994;2023-04-15T12:59:39;2.83;;;2.63;;
17482;SDS011;8858;52.308;20.994;2023-04-15T13:02:07;2.60;;;2.40;;
17482;SDS011;8858;52.308;20.994;2023-04-15T13:04:36;2.40;;;2.20;;
17482;SDS011;8858;52.308;20.994;2023-04-15T13:07:08;2.70;;;2.50;;
17482;SDS011;8858;52.308;20.994;2023-04-15T13:09:39;2.67;;;2.47;;
17482;SDS011;8858;52.308;20.994;2023-04-15T13:12:08;2.93;;;2.73;;
17482;SDS011;8858;52.308;20.994;2023-04-15T13:14:39;4.00;;;2.80;;
17482;SDS011;8858;52.308;20.994;2023-04-15T13:17:07;2.60;;;2.50;;
17482;SDS011;8858;52.308;20.994;2023-04-15T13:19:37;2.83;;;2.63;;
17482;SDS011;8858;52.308;20.994;2023-04-15T13:22:07;2.67;;;2.47;;
17482;SDS011;8858;52.308;20.994;2023-04-15T13:24:35;3.53;;;2.47;;
17482;SDS011;8858;52.308;20.994;2023-04-15T13:27:05;4.87;;;2.50;;
17482;SDS011;8858;52.308;20.994;2023-04-15T13:29:34;2.93;;;2.73;;
17482;SDS011;8858;52.308;20.994;2023-04-15T13:32:03;2.90;;;2.60;;
17482;SDS011;8858;52.308;20.994;2023-04-15T13:34:31;3.17;;;2.60;;
17482;SDS011;8858;52.308;20.994;2023-04-15T13:37:05;3.83;;;3.00;;
17482;SDS011;8858;52.308;20.994;2023-04-15T13:39:34;2.67;;;2.20;;
17482;SDS011;8858;52.308;20.994;2023-04-15T13:42:03;2.00;;;1.90;;
17482;SDS011;8858;52.308;20.994;2023-04-15T13:44:31;2.20;;;1.93;;
17482;SDS011;8858;52.308;20.994;2023-04-15T13:47:00;2.00;;;1.80;;
17482;SDS011;8858;52.308;20.994;2023-04-15T13:49:30;1.67;;;1.57;;
17482;SDS011;8858;52.308;20.994;2023-04-15T13:51:59;1.87;;;1.77;;
17482;SDS011;8858;52.308;20.994;2023-04-15T13:54:27;2.03;;;1.93;;
17482;SDS011;8858;52.308;20.994;2023-04-15T13:57:05;3.03;;;2.57;;
17482;SDS011;8858;52.308;20.994;2023-04-15T13:59:33;6.00;;;5.40;;
17482;SDS011;8858;52.308;20.994;2023-04-15T14:02:01;2.70;;;2.47;;
17482;SDS011;8858;52.308;20.994;2023-04-15T14:04:30;2.97;;;2.77;;
17482;SDS011;8858;52.308;20.994;2023-04-15T14:06:58;2.60;;;2.40;;
17482;SDS011;8858;52.308;20.994;2023-04-15T14:09:30;2.90;;;2.53;;
17482;SDS011;8858;52.308;20.994;2023-04-15T14:11:58;2.70;;;2.50;;
17482;SDS011;8858;52.308;20.994;2023-04-15T14:14:30;2.10;;;2.00;;
17482;SDS011;8858;52.308;20.994;2023-04-15T14:16:58;2.73;;;2.47;;
17482;SDS011;8858;52.308;20.994;2023-04-15T14:19:26;3.33;;;2.60;;
17482;SDS011;8858;52.308;20.994;2023-04-15T14:21:56;2.60;;;2.40;;
17482;SDS011;8858;52.308;20.994;2023-04-15T14:24:25;3.80;;;2.40;;
17482;SDS011;8858;52.308;20.994;2023-04-15T14:26:54;2.37;;;2.17;;
17482;SDS011;8858;52.308;20.994;2023-04-15T14:29:24;5.57;;;5.07;;
17482;SDS011;8858;52.308;20.994;2023-04-15T14:31:53;2.80;;;2.10;;
17482;SDS011;8858;52.308;20.994;2023-04-15T14:34:38;1.77;;;1.67;;
17482;SDS011;8858;52.308;20.994;2023-04-15T14:37:07;1.50;;;1.40;;
17482;SDS011;8858;52.308;20.994;2023-04-15T14:39:35;2.27;;;1.50;;
17482;SDS011;8858;52.308;20.994;2023-04-15T14:42:04;1.60;;;1.50;;
17482;SDS011;8858;52.308;20.994;2023-04-15T14:44:33;2.20;;;1.60;;
17482;SDS011;8858;52.308;20.994;2023-04-15T14:47:02;2.00;;;1.90;;
17482;SDS011;8858;52.308;20.994;2023-04-15T14:49:31;1.40;;;1.40;;
17482;SDS011;8858;52.308;20.994;2023-04-15T14:52:01;1.80;;;1.70;;
17482;SDS011;8858;52.308;20.994;2023-04-15T14:54:32;9.00;;;7.57;;
17482;SDS011;8858;52.308;20.994;2023-04-15T14:57:00;2.20;;;2.00;;
17482;SDS011;8858;52.308;20.994;2023-04-15T14:59:29;1.60;;;1.50;;
17482;SDS011;8858;52.308;20.994;2023-04-15T15:01:57;1.70;;;1.60;;
17482;SDS011;8858;52.308;20.994;2023-04-15T15:04:31;1.70;;;1.60;;